sensor_id;sensor_type;location;lat;lon;timestamp;P1;durP1;ratioP1;P2;durP2;ratioP2
22774;SDS011;11554;51.106;3.684;2023-05-24T00:00:00;11.90;;;2.50;;
22774;SDS011;11554;51.106;3.684;2023-05-24T00:05:00;13.10;;;3.00;;
22774;SDS011;11554;51.106;3.684;2023-05-24T00:10:00;13.10;;;3.00;;
22774;SDS011;11554;51.106;3.684;2023-05-24T00:15:00;12.50;;;2.80;;
22774;SDS011;11554;51.106;3.684;2023-05-24T00:20:00;12.50;;;2.80;;
22774;SDS011;11554;51.106;3.684;2023-05-24T00:25:00;11.80;;;3.20;;
22774;SDS011;11554;51.106;3.684;2023-05-24T00:30:00;11.80;;;3.20;;
22774;SDS011;11554;51.106;3.684;2023-05-24T00:35:00;9.10;;;2.30;;
22774;SDS011;11554;51.106;3.684;2023-05-24T00:40:00;9.10;;;2.30;;
22774;SDS011;11554;51.106;3.684;2023-05-24T00:45:00;8.40;;;2.90;;
22774;SDS011;11554;51.106;3.684;2023-05-24T00:50:01;8.40;;;2.90;;
22774;SDS011;11554;51.106;3.684;2023-05-24T00:55:00;9.70;;;2.90;;
22774;SDS011;11554;51.106;3.684;2023-05-24T01:00:01;9.70;;;2.90;;
22774;SDS011;11554;51.106;3.684;2023-05-24T01:05:00;8.20;;;2.40;;
22774;SDS011;11554;51.106;3.684;2023-05-24T01:10:04;8.20;;;2.40;;
22774;SDS011;11554;51.106;3.684;2023-05-24T01:15:07;10.00;;;3.30;;
22774;SDS011;11554;51.106;3.684;2023-05-24T01:20:02;10.00;;;3.30;;
22774;SDS011;11554;51.106;3.684;2023-05-24T01:25:03;9.50;;;3.10;;
22774;SDS011;11554;51.106;3.684;2023-05-24T01:30:01;9.50;;;3.10;;
22774;SDS011;11554;51.106;3.684;2023-05-24T01:35:00;9.50;;;3.00;;
22774;SDS011;11554;51.106;3.684;2023-05-24T01:40:00;9.50;;;3.00;;
22774;SDS011;11554;51.106;3.684;2023-05-24T01:45:05;10.20;;;2.80;;
22774;SDS011;11554;51.106;3.684;2023-05-24T01:50:06;10.20;;;2.80;;
22774;SDS011;11554;51.106;3.684;2023-05-24T01:55:02;6.90;;;2.60;;
22774;SDS011;11554;51.106;3.684;2023-05-24T02:00:02;6.90;;;2.60;;
22774;SDS011;11554;51.106;3.684;2023-05-24T02:05:00;9.60;;;3.10;;
22774;SDS011;11554;51.106;3.684;2023-05-24T02:10:00;9.60;;;3.10;;
22774;SDS011;11554;51.106;3.684;2023-05-24T02:15:00;10.30;;;2.80;;
22774;SDS011;11554;51.106;3.684;2023-05-24T02:20:00;10.30;;;2.80;;
22774;SDS011;11554;51.106;3.684;2023-05-24T02:25:00;11.60;;;3.40;;
22774;SDS011;11554;51.106;3.684;2023-05-24T02:30:00;11.60;;;3.40;;
22774;SDS011;11554;51.106;3.684;2023-05-24T02:35:00;10.90;;;3.20;;
22774;SDS011;11554;51.106;3.684;2023-05-24T02:40:00;10.90;;;3.20;;
22774;SDS011;11554;51.106;3.684;2023-05-24T02:45:00;8.90;;;3.40;;
22774;SDS011;11554;51.106;3.684;2023-05-24T02:50:00;8.90;;;3.40;;
22774;SDS011;11554;51.106;3.684;2023-05-24T02:55:00;9.90;;;3.30;;
22774;SDS011;11554;51.106;3.684;2023-05-24T03:00:00;9.90;;;3.30;;
22774;SDS011;11554;51.106;3.684;2023-05-24T03:05:00;8.30;;;3.10;;
22774;SDS011;11554;51.106;3.684;2023-05-24T03:10:00;8.30;;;3.10;;
22774;SDS011;11554;51.106;3.684;2023-05-24T03:15:01;10.80;;;3.10;;
22774;SDS011;11554;51.106;3.684;2023-05-24T03:20:00;10.80;;;3.10;;
22774;SDS011;11554;51.106;3.684;2023-05-24T03:25:00;9.10;;;3.10;;
22774;SDS011;11554;51.106;3.684;2023-05-24T03:30:00;9.10;;;3.10;;
22774;SDS011;11554;51.106;3.684;2023-05-24T03:35:00;7.90;;;3.00;;
22774;SDS011;11554;51.106;3.684;2023-05-24T03:40:00;7.90;;;3.00;;
22774;SDS011;11554;51.106;3.684;2023-05-24T03:45:00;9.20;;;3.30;;
22774;SDS011;11554;51.106;3.684;2023-05-24T03:50:00;9.20;;;3.30;;
22774;SDS011;11554;51.106;3.684;2023-05-24T03:55:00;11.70;;;3.20;;
22774;SDS011;11554;51.106;3.684;2023-05-24T04:00:00;11.70;;;3.20;;
22774;SDS011;11554;51.106;3.684;2023-05-24T04:05:00;10.10;;;3.20;;
22774;SDS011;11554;51.106;3.684;2023-05-24T04:10:00;10.10;;;3.20;;
22774;SDS011;11554;51.106;3.684;2023-05-24T04:15:00;9.10;;;3.20;;
22774;SDS011;11554;51.106;3.684;2023-05-24T04:20:00;9.10;;;3.20;;
22774;SDS011;11554;51.106;3.684;2023-05-24T04:25:00;8.70;;;3.10;;
22774;SDS011;11554;51.106;3.684;2023-05-24T04:30:00;8.70;;;3.10;;
22774;SDS011;11554;51.106;3.684;2023-05-24T04:35:00;10.80;;;3.70;;
22774;SDS011;11554;51.106;3.684;2023-05-24T04:40:00;10.80;;;3.70;;
22774;SDS011;11554;51.106;3.684;2023-05-24T04:45:00;8.80;;;3.80;;
22774;SDS011;11554;51.106;3.684;2023-05-24T04:50:00;8.80;;;3.80;;
22774;SDS011;11554;51.106;3.684;2023-05-24T04:55:00;11.30;;;4.10;;
22774;SDS011;11554;51.106;3.684;2023-05-24T05:00:00;11.30;;;4.10;;
22774;SDS011;11554;51.106;3.684;2023-05-24T05:05:00;14.60;;;4.70;;
22774;SDS011;11554;51.106;3.684;2023-05-24T05:10:00;14.60;;;4.70;;
22774;SDS011;11554;51.106;3.684;2023-05-24T05:15:00;16.20;;;5.60;;
22774;SDS011;11554;51.106;3.684;2023-05-24T05:20:00;16.20;;;5.60;;
22774;SDS011;11554;51.106;3.684;2023-05-24T05:25:00;21.70;;;7.00;;
22774;SDS011;11554;51.106;3.684;2023-05-24T05:30:00;21.70;;;7.00;;
22774;SDS011;11554;51.106;3.684;2023-05-24T05:35:00;20.30;;;7.00;;
22774;SDS011;11554;51.106;3.684;2023-05-24T05:40:00;20.30;;;7.00;;
22774;SDS011;11554;51.106;3.684;2023-05-24T05:45:00;19.40;;;6.60;;
22774;SDS011;11554;51.106;3.684;2023-05-24T05:50:00;19.40;;;6.60;;
22774;SDS011;11554;51.106;3.684;2023-05-24T05:55:00;20.40;;;6.60;;
22774;SDS011;11554;51.106;3.684;2023-05-24T06:00:00;20.40;;;6.60;;
22774;SDS011;11554;51.106;3.684;2023-05-24T06:05:00;18.10;;;4.90;;
22774;SDS011;11554;51.106;3.684;2023-05-24T06:10:00;18.10;;;4.90;;
22774;SDS011;11554;51.106;3.684;2023-05-24T06:15:00;15.90;;;5.10;;
22774;SDS011;11554;51.106;3.684;2023-05-24T06:20:00;15.90;;;5.10;;
22774;SDS011;11554;51.106;3.684;2023-05-24T06:25:00;14.70;;;5.10;;
22774;SDS011;11554;51.106;3.684;2023-05-24T06:30:00;14.70;;;5.10;;
22774;SDS011;11554;51.106;3.684;2023-05-24T06:35:00;16.40;;;4.50;;
22774;SDS011;11554;51.106;3.684;2023-05-24T06:40:00;16.40;;;4.50;;
22774;SDS011;11554;51.106;3.684;2023-05-24T06:45:00;17.20;;;5.10;;
22774;SDS011;11554;51.106;3.684;2023-05-24T06:50:01;17.20;;;5.10;;
22774;SDS011;11554;51.106;3.684;2023-05-24T06:55:00;18.70;;;5.30;;
22774;SDS011;11554;51.106;3.684;2023-05-24T07:00:00;18.70;;;5.30;;
22774;SDS011;11554;51.106;3.684;2023-05-24T07:05:00;18.10;;;4.80;;
22774;SDS011;11554;51.106;3.684;2023-05-24T07:10:00;18.10;;;4.80;;
22774;SDS011;11554;51.106;3.684;2023-05-24T07:15:00;19.10;;;5.60;;
22774;SDS011;11554;51.106;3.684;2023-05-24T07:20:00;19.10;;;5.60;;
22774;SDS011;11554;51.106;3.684;2023-05-24T07:25:00;17.70;;;5.30;;
22774;SDS011;11554;51.106;3.684;2023-05-24T07:30:00;17.70;;;5.30;;
22774;SDS011;11554;51.106;3.684;2023-05-24T07:35:00;17.30;;;4.90;;
22774;SDS011;11554;51.106;3.684;2023-05-24T07:40:00;17.30;;;4.90;;
22774;SDS011;11554;51.106;3.684;2023-05-24T07:45:01;18.70;;;5.20;;
22774;SDS011;11554;51.106;3.684;2023-05-24T07:50:00;18.70;;;5.20;;
22774;SDS011;11554;51.106;3.684;2023-05-24T07:55:00;16.70;;;5.10;;
22774;SDS011;11554;51.106;3.684;2023-05-24T08:00:00;16.70;;;5.10;;
22774;SDS011;11554;51.106;3.684;2023-05-24T08:05:00;15.00;;;4.60;;
22774;SDS011;11554;51.106;3.684;2023-05-24T08:10:00;15.00;;;4.60;;
22774;SDS011;11554;51.106;3.684;2023-05-24T08:15:00;14.60;;;5.00;;
22774;SDS011;11554;51.106;3.684;2023-05-24T08:20:00;14.60;;;5.00;;
22774;SDS011;11554;51.106;3.684;2023-05-24T08:25:00;15.40;;;5.10;;
22774;SDS011;11554;51.106;3.684;2023-05-24T08:30:00;15.40;;;5.10;;
22774;SDS011;11554;51.106;3.684;2023-05-24T08:35:00;17.50;;;5.60;;
22774;SDS011;11554;51.106;3.684;2023-05-24T08:40:00;17.50;;;5.60;;
22774;SDS011;11554;51.106;3.684;2023-05-24T08:45:03;11.80;;;5.10;;
22774;SDS011;11554;51.106;3.684;2023-05-24T08:50:01;11.80;;;5.10;;
22774;SDS011;11554;51.106;3.684;2023-05-24T08:55:01;17.20;;;5.50;;
22774;SDS011;11554;51.106;3.684;2023-05-24T09:00:00;17.20;;;5.50;;
22774;SDS011;11554;51.106;3.684;2023-05-24T09:05:01;18.60;;;5.50;;
22774;SDS011;11554;51.106;3.684;2023-05-24T09:10:03;18.60;;;5.50;;
22774;SDS011;11554;51.106;3.684;2023-05-24T09:15:01;14.10;;;4.80;;
22774;SDS011;11554;51.106;3.684;2023-05-24T09:20:00;14.10;;;4.80;;
22774;SDS011;11554;51.106;3.684;2023-05-24T09:25:01;11.40;;;3.80;;
22774;SDS011;11554;51.106;3.684;2023-05-24T09:30:00;11.40;;;3.80;;
22774;SDS011;11554;51.106;3.684;2023-05-24T09:35:00;15.00;;;4.80;;
22774;SDS011;11554;51.106;3.684;2023-05-24T09:40:00;15.00;;;4.80;;
22774;SDS011;11554;51.106;3.684;2023-05-24T09:45:01;11.70;;;4.30;;
22774;SDS011;11554;51.106;3.684;2023-05-24T09:50:01;11.70;;;4.30;;
22774;SDS011;11554;51.106;3.684;2023-05-24T09:55:10;11.00;;;3.80;;
22774;SDS011;11554;51.106;3.684;2023-05-24T10:00:04;11.00;;;3.80;;
22774;SDS011;11554;51.106;3.684;2023-05-24T10:05:01;13.50;;;3.60;;
22774;SDS011;11554;51.106;3.684;2023-05-24T10:10:01;13.50;;;3.60;;
22774;SDS011;11554;51.106;3.684;2023-05-24T10:15:01;10.00;;;3.90;;
22774;SDS011;11554;51.106;3.684;2023-05-24T10:20:00;10.00;;;3.90;;
22774;SDS011;11554;51.106;3.684;2023-05-24T10:25:02;11.00;;;3.80;;
22774;SDS011;11554;51.106;3.684;2023-05-24T10:30:09;11.00;;;3.80;;
22774;SDS011;11554;51.106;3.684;2023-05-24T10:35:02;11.70;;;3.60;;
22774;SDS011;11554;51.106;3.684;2023-05-24T10:40:00;11.70;;;3.60;;
22774;SDS011;11554;51.106;3.684;2023-05-24T10:45:17;10.30;;;3.30;;
22774;SDS011;11554;51.106;3.684;2023-05-24T10:50:15;10.30;;;3.30;;
22774;SDS011;11554;51.106;3.684;2023-05-24T10:55:01;8.60;;;2.60;;
22774;SDS011;11554;51.106;3.684;2023-05-24T11:05:04;11.50;;;2.90;;
22774;SDS011;11554;51.106;3.684;2023-05-24T11:10:03;11.50;;;2.90;;
22774;SDS011;11554;51.106;3.684;2023-05-24T11:15:00;10.80;;;3.40;;
22774;SDS011;11554;51.106;3.684;2023-05-24T11:20:00;10.80;;;3.40;;
22774;SDS011;11554;51.106;3.684;2023-05-24T11:25:01;10.40;;;3.30;;
22774;SDS011;11554;51.106;3.684;2023-05-24T11:30:00;10.40;;;3.30;;
22774;SDS011;11554;51.106;3.684;2023-05-24T11:35:00;9.80;;;3.30;;
22774;SDS011;11554;51.106;3.684;2023-05-24T11:40:01;9.80;;;3.30;;
22774;SDS011;11554;51.106;3.684;2023-05-24T11:45:00;9.10;;;3.50;;
22774;SDS011;11554;51.106;3.684;2023-05-24T11:50:00;9.10;;;3.50;;
22774;SDS011;11554;51.106;3.684;2023-05-24T11:55:00;7.20;;;2.90;;
22774;SDS011;11554;51.106;3.684;2023-05-24T12:00:00;7.20;;;2.90;;
22774;SDS011;11554;51.106;3.684;2023-05-24T12:05:05;7.70;;;3.00;;
22774;SDS011;11554;51.106;3.684;2023-05-24T12:10:00;7.70;;;3.00;;
22774;SDS011;11554;51.106;3.684;2023-05-24T12:15:00;8.80;;;3.20;;
22774;SDS011;11554;51.106;3.684;2023-05-24T12:20:01;8.80;;;3.20;;
22774;SDS011;11554;51.106;3.684;2023-05-24T12:25:02;9.30;;;3.30;;
22774;SDS011;11554;51.106;3.684;2023-05-24T12:30:05;9.30;;;3.30;;
22774;SDS011;11554;51.106;3.684;2023-05-24T12:35:02;9.80;;;3.40;;
22774;SDS011;11554;51.106;3.684;2023-05-24T12:40:00;9.80;;;3.40;;
22774;SDS011;11554;51.106;3.684;2023-05-24T12:45:00;9.30;;;3.80;;
22774;SDS011;11554;51.106;3.684;2023-05-24T12:50:00;9.30;;;3.80;;
22774;SDS011;11554;51.106;3.684;2023-05-24T12:55:00;9.20;;;3.20;;
22774;SDS011;11554;51.106;3.684;2023-05-24T13:00:00;9.20;;;3.20;;
22774;SDS011;11554;51.106;3.684;2023-05-24T13:05:00;10.00;;;3.90;;
22774;SDS011;11554;51.106;3.684;2023-05-24T13:10:00;10.00;;;3.90;;
22774;SDS011;11554;51.106;3.684;2023-05-24T13:15:00;9.20;;;3.40;;
22774;SDS011;11554;51.106;3.684;2023-05-24T13:20:02;9.20;;;3.40;;
22774;SDS011;11554;51.106;3.684;2023-05-24T13:25:00;9.50;;;4.40;;
22774;SDS011;11554;51.106;3.684;2023-05-24T13:30:00;9.50;;;4.40;;
22774;SDS011;11554;51.106;3.684;2023-05-24T13:35:00;10.00;;;4.00;;
22774;SDS011;11554;51.106;3.684;2023-05-24T13:40:00;10.00;;;4.00;;
22774;SDS011;11554;51.106;3.684;2023-05-24T13:45:00;8.70;;;3.30;;
22774;SDS011;11554;51.106;3.684;2023-05-24T13:50:00;8.70;;;3.30;;
22774;SDS011;11554;51.106;3.684;2023-05-24T13:55:01;9.10;;;4.10;;
22774;SDS011;11554;51.106;3.684;2023-05-24T14:00:00;9.10;;;4.10;;
22774;SDS011;11554;51.106;3.684;2023-05-24T14:05:00;9.80;;;3.60;;
22774;SDS011;11554;51.106;3.684;2023-05-24T14:10:00;9.80;;;3.60;;
22774;SDS011;11554;51.106;3.684;2023-05-24T14:15:00;8.10;;;3.20;;
22774;SDS011;11554;51.106;3.684;2023-05-24T14:20:00;8.10;;;3.20;;
22774;SDS011;11554;51.106;3.684;2023-05-24T14:25:00;8.80;;;3.20;;
22774;SDS011;11554;51.106;3.684;2023-05-24T14:30:00;8.80;;;3.20;;
22774;SDS011;11554;51.106;3.684;2023-05-24T14:35:00;13.30;;;3.60;;
22774;SDS011;11554;51.106;3.684;2023-05-24T14:40:00;13.30;;;3.60;;
22774;SDS011;11554;51.106;3.684;2023-05-24T14:45:00;9.50;;;3.40;;
22774;SDS011;11554;51.106;3.684;2023-05-24T14:50:00;9.50;;;3.40;;
22774;SDS011;11554;51.106;3.684;2023-05-24T14:55:00;8.10;;;3.00;;
22774;SDS011;11554;51.106;3.684;2023-05-24T15:00:00;8.10;;;3.00;;
22774;SDS011;11554;51.106;3.684;2023-05-24T15:05:00;9.50;;;2.80;;
22774;SDS011;11554;51.106;3.684;2023-05-24T15:10:00;9.50;;;2.80;;
22774;SDS011;11554;51.106;3.684;2023-05-24T15:15:00;10.50;;;2.90;;
22774;SDS011;11554;51.106;3.684;2023-05-24T15:20:00;10.50;;;2.90;;
22774;SDS011;11554;51.106;3.684;2023-05-24T15:25:00;7.90;;;2.70;;
22774;SDS011;11554;51.106;3.684;2023-05-24T15:30:00;7.90;;;2.70;;
22774;SDS011;11554;51.106;3.684;2023-05-24T15:35:00;10.30;;;2.70;;
22774;SDS011;11554;51.106;3.684;2023-05-24T15:40:00;10.30;;;2.70;;
22774;SDS011;11554;51.106;3.684;2023-05-24T15:45:00;8.80;;;2.80;;
22774;SDS011;11554;51.106;3.684;2023-05-24T15:50:01;8.80;;;2.80;;
22774;SDS011;11554;51.106;3.684;2023-05-24T15:55:00;9.40;;;2.50;;
22774;SDS011;11554;51.106;3.684;2023-05-24T16:00:00;9.40;;;2.50;;
22774;SDS011;11554;51.106;3.684;2023-05-24T16:05:00;9.10;;;2.80;;
22774;SDS011;11554;51.106;3.684;2023-05-24T16:10:00;9.10;;;2.80;;
22774;SDS011;11554;51.106;3.684;2023-05-24T16:15:00;10.20;;;3.20;;
22774;SDS011;11554;51.106;3.684;2023-05-24T16:20:00;10.20;;;3.20;;
22774;SDS011;11554;51.106;3.684;2023-05-24T16:25:00;9.60;;;2.80;;
22774;SDS011;11554;51.106;3.684;2023-05-24T16:30:00;9.60;;;2.80;;
22774;SDS011;11554;51.106;3.684;2023-05-24T16:35:00;8.20;;;2.90;;
22774;SDS011;11554;51.106;3.684;2023-05-24T16:40:00;8.20;;;2.90;;
22774;SDS011;11554;51.106;3.684;2023-05-24T16:45:00;9.40;;;2.60;;
22774;SDS011;11554;51.106;3.684;2023-05-24T16:50:00;9.40;;;2.60;;
22774;SDS011;11554;51.106;3.684;2023-05-24T16:55:00;8.10;;;2.50;;
22774;SDS011;11554;51.106;3.684;2023-05-24T17:00:00;8.10;;;2.50;;
22774;SDS011;11554;51.106;3.684;2023-05-24T17:05:00;8.80;;;2.50;;
22774;SDS011;11554;51.106;3.684;2023-05-24T17:10:00;8.80;;;2.50;;
22774;SDS011;11554;51.106;3.684;2023-05-24T17:15:00;8.00;;;2.70;;
22774;SDS011;11554;51.106;3.684;2023-05-24T17:20:00;8.00;;;2.70;;
22774;SDS011;11554;51.106;3.684;2023-05-24T17:25:00;7.60;;;2.50;;
22774;SDS011;11554;51.106;3.684;2023-05-24T17:30:00;7.60;;;2.50;;
22774;SDS011;11554;51.106;3.684;2023-05-24T17:35:00;9.80;;;2.50;;
22774;SDS011;11554;51.106;3.684;2023-05-24T17:40:00;9.80;;;2.50;;
22774;SDS011;11554;51.106;3.684;2023-05-24T17:45:00;9.00;;;3.00;;
22774;SDS011;11554;51.106;3.684;2023-05-24T17:50:00;9.00;;;3.00;;
22774;SDS011;11554;51.106;3.684;2023-05-24T17:55:00;8.50;;;2.70;;
22774;SDS011;11554;51.106;3.684;2023-05-24T18:00:00;8.50;;;2.70;;
22774;SDS011;11554;51.106;3.684;2023-05-24T18:05:00;9.20;;;2.90;;
22774;SDS011;11554;51.106;3.684;2023-05-24T18:10:00;9.20;;;2.90;;
22774;SDS011;11554;51.106;3.684;2023-05-24T18:15:00;9.50;;;2.60;;
22774;SDS011;11554;51.106;3.684;2023-05-24T18:20:00;9.50;;;2.60;;
22774;SDS011;11554;51.106;3.684;2023-05-24T18:25:00;12.80;;;3.40;;
22774;SDS011;11554;51.106;3.684;2023-05-24T18:30:00;12.80;;;3.40;;
22774;SDS011;11554;51.106;3.684;2023-05-24T18:35:00;10.60;;;3.10;;
22774;SDS011;11554;51.106;3.684;2023-05-24T18:40:00;10.60;;;3.10;;
22774;SDS011;11554;51.106;3.684;2023-05-24T18:45:00;10.10;;;2.80;;
22774;SDS011;11554;51.106;3.684;2023-05-24T18:50:00;10.10;;;2.80;;
22774;SDS011;11554;51.106;3.684;2023-05-24T18:55:00;10.70;;;2.60;;
22774;SDS011;11554;51.106;3.684;2023-05-24T19:00:00;10.70;;;2.60;;
22774;SDS011;11554;51.106;3.684;2023-05-24T19:05:00;11.30;;;3.30;;
22774;SDS011;11554;51.106;3.684;2023-05-24T19:10:01;11.30;;;3.30;;
22774;SDS011;11554;51.106;3.684;2023-05-24T19:15:00;13.90;;;3.10;;
22774;SDS011;11554;51.106;3.684;2023-05-24T19:20:01;13.90;;;3.10;;
22774;SDS011;11554;51.106;3.684;2023-05-24T19:25:00;11.20;;;3.60;;
22774;SDS011;11554;51.106;3.684;2023-05-24T19:30:00;11.20;;;3.60;;
22774;SDS011;11554;51.106;3.684;2023-05-24T19:35:00;14.00;;;3.50;;
22774;SDS011;11554;51.106;3.684;2023-05-24T19:40:00;14.00;;;3.50;;
22774;SDS011;11554;51.106;3.684;2023-05-24T19:45:00;10.20;;;2.70;;
22774;SDS011;11554;51.106;3.684;2023-05-24T19:50:00;10.20;;;2.70;;
22774;SDS011;11554;51.106;3.684;2023-05-24T19:55:00;10.20;;;3.00;;
22774;SDS011;11554;51.106;3.684;2023-05-24T20:00:01;10.20;;;3.00;;
22774;SDS011;11554;51.106;3.684;2023-05-24T20:05:00;11.80;;;3.30;;
22774;SDS011;11554;51.106;3.684;2023-05-24T20:10:00;11.80;;;3.30;;
22774;SDS011;11554;51.106;3.684;2023-05-24T20:15:00;15.90;;;3.80;;
22774;SDS011;11554;51.106;3.684;2023-05-24T20:20:00;15.90;;;3.80;;
22774;SDS011;11554;51.106;3.684;2023-05-24T20:25:00;12.20;;;3.80;;
22774;SDS011;11554;51.106;3.684;2023-05-24T20:30:00;12.20;;;3.80;;
22774;SDS011;11554;51.106;3.684;2023-05-24T20:35:01;12.40;;;3.50;;
22774;SDS011;11554;51.106;3.684;2023-05-24T20:40:00;12.40;;;3.50;;
22774;SDS011;11554;51.106;3.684;2023-05-24T20:45:01;14.60;;;4.20;;
22774;SDS011;11554;51.106;3.684;2023-05-24T20:50:00;14.60;;;4.20;;
22774;SDS011;11554;51.106;3.684;2023-05-24T20:55:00;13.80;;;3.90;;
22774;SDS011;11554;51.106;3.684;2023-05-24T21:00:00;13.80;;;3.90;;
22774;SDS011;11554;51.106;3.684;2023-05-24T21:05:00;13.50;;;3.90;;
22774;SDS011;11554;51.106;3.684;2023-05-24T21:10:00;13.50;;;3.90;;
22774;SDS011;11554;51.106;3.684;2023-05-24T21:15:00;13.60;;;4.60;;
22774;SDS011;11554;51.106;3.684;2023-05-24T21:20:00;13.60;;;4.60;;
22774;SDS011;11554;51.106;3.684;2023-05-24T21:25:00;14.80;;;4.10;;
22774;SDS011;11554;51.106;3.684;2023-05-24T21:30:00;14.80;;;4.10;;
22774;SDS011;11554;51.106;3.684;2023-05-24T21:35:00;14.20;;;3.80;;
22774;SDS011;11554;51.106;3.684;2023-05-24T21:40:00;14.20;;;3.80;;
22774;SDS011;11554;51.106;3.684;2023-05-24T21:45:00;15.80;;;4.30;;
22774;SDS011;11554;51.106;3.684;2023-05-24T21:50:00;15.80;;;4.30;;
22774;SDS011;11554;51.106;3.684;2023-05-24T21:55:00;13.60;;;5.10;;
22774;SDS011;11554;51.106;3.684;2023-05-24T22:00:00;13.60;;;5.10;;
22774;SDS011;11554;51.106;3.684;2023-05-24T22:05:00;14.00;;;4.50;;
22774;SDS011;11554;51.106;3.684;2023-05-24T22:10:00;14.00;;;4.50;;
22774;SDS011;11554;51.106;3.684;2023-05-24T22:15:01;17.00;;;4.20;;
22774;SDS011;11554;51.106;3.684;2023-05-24T22:20:00;17.00;;;4.20;;
22774;SDS011;11554;51.106;3.684;2023-05-24T22:25:00;11.90;;;4.10;;
22774;SDS011;11554;51.106;3.684;2023-05-24T22:30:00;11.90;;;4.10;;
22774;SDS011;11554;51.106;3.684;2023-05-24T22:35:00;12.90;;;4.50;;
22774;SDS011;11554;51.106;3.684;2023-05-24T22:40:01;12.90;;;4.50;;
22774;SDS011;11554;51.106;3.684;2023-05-24T22:45:00;16.30;;;4.80;;
22774;SDS011;11554;51.106;3.684;2023-05-24T22:50:00;16.30;;;4.80;;
22774;SDS011;11554;51.106;3.684;2023-05-24T22:55:01;15.80;;;5.10;;
22774;SDS011;11554;51.106;3.684;2023-05-24T23:00:00;15.80;;;5.10;;
22774;SDS011;11554;51.106;3.684;2023-05-24T23:05:00;15.80;;;4.70;;
22774;SDS011;11554;51.106;3.684;2023-05-24T23:10:00;15.80;;;4.70;;
22774;SDS011;11554;51.106;3.684;2023-05-24T23:15:00;15.80;;;4.90;;
22774;SDS011;11554;51.106;3.684;2023-05-24T23:20:00;15.80;;;4.90;;
22774;SDS011;11554;51.106;3.684;2023-05-24T23:25:00;16.50;;;5.30;;
22774;SDS011;11554;51.106;3.684;2023-05-24T23:30:00;16.50;;;5.30;;
22774;SDS011;11554;51.106;3.684;2023-05-24T23:35:00;17.80;;;5.00;;
22774;SDS011;11554;51.106;3.684;2023-05-24T23:40:00;17.80;;;5.00;;
22774;SDS011;11554;51.106;3.684;2023-05-24T23:45:00;18.90;;;5.40;;
22774;SDS011;11554;51.106;3.684;2023-05-24T23:50:00;18.90;;;5.40;;
22774;SDS011;11554;51.106;3.684;2023-05-24T23:55:00;17.60;;;5.10;;
